sensor_id;sensor_type;location;lat;lon;timestamp;pressure;altitude;pressure_sealevel;temperature;humidity
51099;BME280;37146;48.210;16.234;2023-05-24T00:00:15;98681.81;;;14.83;100.00
51099;BME280;37146;48.210;16.234;2023-05-24T00:02:41;98679.25;;;14.81;100.00
51099;BME280;37146;48.210;16.234;2023-05-24T00:05:09;98681.88;;;14.70;100.00
51099;BME280;37146;48.210;16.234;2023-05-24T00:07:35;98688.09;;;14.71;100.00
51099;BME280;37146;48.210;16.234;2023-05-24T00:10:01;98680.78;;;14.73;100.00
51099;BME280;37146;48.210;16.234;2023-05-24T00:12:26;98687.66;;;14.64;100.00
51099;BME280;37146;48.210;16.234;2023-05-24T00:14:51;98683.97;;;14.78;100.00
51099;BME280;37146;48.210;16.234;2023-05-24T00:17:17;98689.81;;;14.72;100.00
51099;BME280;37146;48.210;16.234;2023-05-24T00:19:42;98692.16;;;14.76;100.00
51099;BME280;37146;48.210;16.234;2023-05-24T00:22:07;98695.41;;;14.68;100.00
51099;BME280;37146;48.210;16.234;2023-05-24T00:24:32;98692.19;;;14.63;100.00
51099;BME280;37146;48.210;16.234;2023-05-24T00:26:58;98697.31;;;14.66;100.00
51099;BME280;37146;48.210;16.234;2023-05-24T00:29:23;98694.59;;;14.55;100.00
51099;BME280;37146;48.210;16.234;2023-05-24T00:31:48;98697.31;;;14.66;100.00
51099;BME280;37146;48.210;16.234;2023-05-24T00:34:13;98697.44;;;14.41;100.00
51099;BME280;37146;48.210;16.234;2023-05-24T00:36:38;98692.69;;;14.44;100.00
51099;BME280;37146;48.210;16.234;2023-05-24T00:39:04;98687.09;;;14.34;100.00
51099;BME280;37146;48.210;16.234;2023-05-24T00:41:29;98690.88;;;14.32;100.00
51099;BME280;37146;48.210;16.234;2023-05-24T00:43:55;98692.38;;;14.23;100.00
51099;BME280;37146;48.210;16.234;2023-05-24T00:46:21;98692.31;;;14.25;100.00
51099;BME280;37146;48.210;16.234;2023-05-24T00:48:47;98698.44;;;14.14;100.00
51099;BME280;37146;48.210;16.234;2023-05-24T00:51:12;98702.44;;;14.21;100.00
51099;BME280;37146;48.210;16.234;2023-05-24T00:53:39;98701.16;;;14.01;100.00
51099;BME280;37146;48.210;16.234;2023-05-24T00:56:05;98695.13;;;13.97;100.00
51099;BME280;37146;48.210;16.234;2023-05-24T00:58:31;98694.28;;;13.84;100.00
51099;BME280;37146;48.210;16.234;2023-05-24T01:01:00;98688.38;;;13.91;100.00
51099;BME280;37146;48.210;16.234;2023-05-24T01:03:26;98691.25;;;13.88;100.00
51099;BME280;37146;48.210;16.234;2023-05-24T01:05:58;98690.81;;;13.95;100.00
51099;BME280;37146;48.210;16.234;2023-05-24T01:10:53;98692.88;;;13.78;100.00
51099;BME280;37146;48.210;16.234;2023-05-24T01:13:28;98689.00;;;13.69;100.00
51099;BME280;37146;48.210;16.234;2023-05-24T01:16:06;98701.16;;;13.75;100.00
51099;BME280;37146;48.210;16.234;2023-05-24T01:18:37;98693.63;;;13.67;100.00
51099;BME280;37146;48.210;16.234;2023-05-24T01:29:22;98690.09;;;13.54;100.00
51099;BME280;37146;48.210;16.234;2023-05-24T01:31:49;98686.97;;;13.47;100.00
51099;BME280;37146;48.210;16.234;2023-05-24T01:34:15;98689.03;;;13.29;100.00
51099;BME280;37146;48.210;16.234;2023-05-24T01:36:40;98692.78;;;13.54;100.00
51099;BME280;37146;48.210;16.234;2023-05-24T01:39:05;98691.00;;;13.40;100.00
51099;BME280;37146;48.210;16.234;2023-05-24T01:44:01;98697.59;;;13.49;100.00
51099;BME280;37146;48.210;16.234;2023-05-24T01:46:33;98688.59;;;13.35;100.00
51099;BME280;37146;48.210;16.234;2023-05-24T01:51:27;98687.88;;;13.33;100.00
51099;BME280;37146;48.210;16.234;2023-05-24T01:53:53;98696.94;;;13.05;100.00
51099;BME280;37146;48.210;16.234;2023-05-24T01:56:21;98691.47;;;13.19;100.00
51099;BME280;37146;48.210;16.234;2023-05-24T01:58:48;98691.72;;;13.16;100.00
51099;BME280;37146;48.210;16.234;2023-05-24T02:01:14;98686.22;;;13.18;100.00
51099;BME280;37146;48.210;16.234;2023-05-24T02:03:40;98687.69;;;13.09;100.00
51099;BME280;37146;48.210;16.234;2023-05-24T02:06:05;98690.69;;;13.04;100.00
51099;BME280;37146;48.210;16.234;2023-05-24T02:08:30;98694.19;;;12.92;100.00
51099;BME280;37146;48.210;16.234;2023-05-24T02:10:55;98692.13;;;12.82;100.00
51099;BME280;37146;48.210;16.234;2023-05-24T02:13:21;98692.38;;;12.92;100.00
51099;BME280;37146;48.210;16.234;2023-05-24T02:15:46;98702.66;;;12.86;100.00
51099;BME280;37146;48.210;16.234;2023-05-24T02:18:12;98706.81;;;12.77;100.00
51099;BME280;37146;48.210;16.234;2023-05-24T02:20:38;98703.63;;;12.57;100.00
51099;BME280;37146;48.210;16.234;2023-05-24T02:23:03;98702.09;;;12.53;100.00
51099;BME280;37146;48.210;16.234;2023-05-24T02:25:29;98701.03;;;12.56;100.00
51099;BME280;37146;48.210;16.234;2023-05-24T02:27:55;98697.28;;;12.58;100.00
51099;BME280;37146;48.210;16.234;2023-05-24T02:30:21;98705.06;;;12.48;100.00
51099;BME280;37146;48.210;16.234;2023-05-24T02:32:46;98712.16;;;12.35;100.00
51099;BME280;37146;48.210;16.234;2023-05-24T02:35:11;98714.06;;;12.47;100.00
51099;BME280;37146;48.210;16.234;2023-05-24T02:37:36;98712.34;;;12.46;100.00
51099;BME280;37146;48.210;16.234;2023-05-24T02:40:02;98713.41;;;12.29;100.00
51099;BME280;37146;48.210;16.234;2023-05-24T02:42:28;98713.88;;;12.50;100.00
51099;BME280;37146;48.210;16.234;2023-05-24T02:44:53;98705.28;;;12.45;100.00
51099;BME280;37146;48.210;16.234;2023-05-24T02:47:18;98721.94;;;12.36;100.00
51099;BME280;37146;48.210;16.234;2023-05-24T02:49:43;98720.31;;;12.48;100.00
51099;BME280;37146;48.210;16.234;2023-05-24T02:52:09;98718.59;;;12.47;100.00
51099;BME280;37146;48.210;16.234;2023-05-24T02:54:34;98715.13;;;12.45;100.00
51099;BME280;37146;48.210;16.234;2023-05-24T02:57:00;98715.53;;;12.39;100.00
51099;BME280;37146;48.210;16.234;2023-05-24T02:59:26;98711.91;;;12.40;100.00
51099;BME280;37146;48.210;16.234;2023-05-24T03:01:52;98724.72;;;12.34;100.00
51099;BME280;37146;48.210;16.234;2023-05-24T03:04:17;98726.16;;;12.26;100.00
51099;BME280;37146;48.210;16.234;2023-05-24T03:06:44;98720.44;;;12.32;100.00
51099;BME280;37146;48.210;16.234;2023-05-24T03:09:09;98725.97;;;12.14;100.00
51099;BME280;37146;48.210;16.234;2023-05-24T03:11:34;98728.09;;;12.09;100.00
51099;BME280;37146;48.210;16.234;2023-05-24T03:14:00;98735.28;;;12.09;100.00
51099;BME280;37146;48.210;16.234;2023-05-24T03:16:25;98739.38;;;12.14;100.00
51099;BME280;37146;48.210;16.234;2023-05-24T03:18:50;98737.22;;;12.06;100.00
51099;BME280;37146;48.210;16.234;2023-05-24T03:21:16;98746.09;;;12.07;100.00
51099;BME280;37146;48.210;16.234;2023-05-24T03:23:41;98750.41;;;12.10;100.00
51099;BME280;37146;48.210;16.234;2023-05-24T03:26:07;98750.88;;;12.16;100.00
51099;BME280;37146;48.210;16.234;2023-05-24T03:28:32;98749.06;;;12.17;100.00
51099;BME280;37146;48.210;16.234;2023-05-24T03:30:57;98744.75;;;12.14;100.00
51099;BME280;37146;48.210;16.234;2023-05-24T03:33:23;98753.28;;;12.06;100.00
51099;BME280;37146;48.210;16.234;2023-05-24T03:35:48;98742.56;;;12.06;100.00
51099;BME280;37146;48.210;16.234;2023-05-24T03:38:13;98751.84;;;12.30;100.00
51099;BME280;37146;48.210;16.234;2023-05-24T03:40:38;98745.53;;;12.31;100.00
51099;BME280;37146;48.210;16.234;2023-05-24T03:43:03;98747.91;;;12.35;100.00
51099;BME280;37146;48.210;16.234;2023-05-24T03:45:29;98753.28;;;12.35;100.00
51099;BME280;37146;48.210;16.234;2023-05-24T03:47:54;98757.75;;;12.35;100.00
51099;BME280;37146;48.210;16.234;2023-05-24T03:50:19;98757.75;;;12.35;100.00
51099;BME280;37146;48.210;16.234;2023-05-24T03:52:45;98749.91;;;12.46;100.00
51099;BME280;37146;48.210;16.234;2023-05-24T03:55:11;98761.69;;;12.58;100.00
51099;BME280;37146;48.210;16.234;2023-05-24T03:57:36;98764.91;;;12.63;100.00
51099;BME280;37146;48.210;16.234;2023-05-24T04:00:01;98755.34;;;12.59;100.00
51099;BME280;37146;48.210;16.234;2023-05-24T04:02:27;98755.13;;;12.77;100.00
51099;BME280;37146;48.210;16.234;2023-05-24T04:04:52;98761.25;;;12.79;100.00
51099;BME280;37146;48.210;16.234;2023-05-24T04:07:17;98755.38;;;12.87;100.00
51099;BME280;37146;48.210;16.234;2023-05-24T04:09:43;98771.00;;;12.94;100.00
51099;BME280;37146;48.210;16.234;2023-05-24T04:12:08;98768.25;;;13.09;100.00
51099;BME280;37146;48.210;16.234;2023-05-24T04:14:33;98775.44;;;13.08;100.00
51099;BME280;37146;48.210;16.234;2023-05-24T04:16:59;98776.31;;;13.09;100.00
51099;BME280;37146;48.210;16.234;2023-05-24T04:19:26;98772.28;;;13.16;100.00
51099;BME280;37146;48.210;16.234;2023-05-24T04:21:51;98783.84;;;13.17;100.00
51099;BME280;37146;48.210;16.234;2023-05-24T04:24:16;98780.88;;;13.21;100.00
51099;BME280;37146;48.210;16.234;2023-05-24T04:26:41;98782.41;;;13.25;100.00
51099;BME280;37146;48.210;16.234;2023-05-24T04:29:07;98777.56;;;13.30;100.00
51099;BME280;37146;48.210;16.234;2023-05-24T04:31:32;98784.84;;;13.28;100.00
51099;BME280;37146;48.210;16.234;2023-05-24T04:33:58;98784.84;;;13.28;100.00
51099;BME280;37146;48.210;16.234;2023-05-24T04:36:23;98781.66;;;13.36;100.00
51099;BME280;37146;48.210;16.234;2023-05-24T04:38:49;98789.63;;;13.38;100.00
51099;BME280;37146;48.210;16.234;2023-05-24T04:41:17;98786.06;;;13.37;100.00
51099;BME280;37146;48.210;16.234;2023-05-24T04:43:42;98784.53;;;13.48;100.00
51099;BME280;37146;48.210;16.234;2023-05-24T04:46:08;98786.81;;;13.67;100.00
51099;BME280;37146;48.210;16.234;2023-05-24T04:48:33;98792.84;;;13.70;100.00
51099;BME280;37146;48.210;16.234;2023-05-24T04:50:58;98791.34;;;13.66;100.00
51099;BME280;37146;48.210;16.234;2023-05-24T04:53:24;98790.59;;;13.77;100.00
51099;BME280;37146;48.210;16.234;2023-05-24T04:55:49;98796.63;;;13.81;100.00
51099;BME280;37146;48.210;16.234;2023-05-24T04:58:15;98790.91;;;13.72;100.00
51099;BME280;37146;48.210;16.234;2023-05-24T05:00:41;98794.88;;;13.67;100.00
51099;BME280;37146;48.210;16.234;2023-05-24T05:03:06;98805.31;;;13.71;100.00
51099;BME280;37146;48.210;16.234;2023-05-24T05:05:32;98799.31;;;13.68;100.00
51099;BME280;37146;48.210;16.234;2023-05-24T05:07:57;98803.31;;;13.88;100.00
51099;BME280;37146;48.210;16.234;2023-05-24T05:10:22;98807.50;;;13.92;100.00
51099;BME280;37146;48.210;16.234;2023-05-24T05:12:48;98798.34;;;13.95;100.00
51099;BME280;37146;48.210;16.234;2023-05-24T05:15:13;98809.03;;;13.96;100.00
51099;BME280;37146;48.210;16.234;2023-05-24T05:17:38;98801.59;;;14.00;100.00
51099;BME280;37146;48.210;16.234;2023-05-24T05:20:04;98806.25;;;14.23;100.00
51099;BME280;37146;48.210;16.234;2023-05-24T05:22:29;98805.47;;;14.34;100.00
51099;BME280;37146;48.210;16.234;2023-05-24T05:24:55;98805.34;;;14.49;100.00
51099;BME280;37146;48.210;16.234;2023-05-24T05:27:20;98806.34;;;14.74;100.00
51099;BME280;37146;48.210;16.234;2023-05-24T05:29:45;98811.72;;;14.74;100.00
51099;BME280;37146;48.210;16.234;2023-05-24T05:32:10;98810.09;;;14.58;100.00
51099;BME280;37146;48.210;16.234;2023-05-24T05:34:36;98812.34;;;14.51;100.00
51099;BME280;37146;48.210;16.234;2023-05-24T05:37:01;98817.31;;;14.45;100.00
51099;BME280;37146;48.210;16.234;2023-05-24T05:39:26;98813.78;;;14.31;100.00
51099;BME280;37146;48.210;16.234;2023-05-24T05:41:51;98820.88;;;14.32;100.00
51099;BME280;37146;48.210;16.234;2023-05-24T05:44:17;98824.94;;;14.51;100.00
51099;BME280;37146;48.210;16.234;2023-05-24T05:46:42;98826.78;;;14.63;100.00
51099;BME280;37146;48.210;16.234;2023-05-24T05:49:10;98829.59;;;14.75;100.00
51099;BME280;37146;48.210;16.234;2023-05-24T05:51:35;98827.53;;;14.78;100.00
51099;BME280;37146;48.210;16.234;2023-05-24T05:54:02;98830.22;;;14.65;100.00
51099;BME280;37146;48.210;16.234;2023-05-24T05:56:27;98834.72;;;14.65;100.00
51099;BME280;37146;48.210;16.234;2023-05-24T05:58:53;98838.72;;;14.85;100.00
51099;BME280;37146;48.210;16.234;2023-05-24T06:01:18;98843.72;;;15.03;100.00
51099;BME280;37146;48.210;16.234;2023-05-24T06:03:43;98840.81;;;15.06;100.00
51099;BME280;37146;48.210;16.234;2023-05-24T06:06:08;98849.56;;;14.96;100.00
51099;BME280;37146;48.210;16.234;2023-05-24T06:08:34;98852.53;;;14.80;100.00
51099;BME280;37146;48.210;16.234;2023-05-24T06:10:59;98859.72;;;14.93;100.00
51099;BME280;37146;48.210;16.234;2023-05-24T06:13:25;98845.50;;;14.78;100.00
51099;BME280;37146;48.210;16.234;2023-05-24T06:15:52;98855.63;;;14.87;100.00
51099;BME280;37146;48.210;16.234;2023-05-24T06:18:17;98852.59;;;14.79;100.00
51099;BME280;37146;48.210;16.234;2023-05-24T06:20:42;98858.00;;;14.92;100.00
51099;BME280;37146;48.210;16.234;2023-05-24T06:23:08;98847.19;;;15.05;100.00
51099;BME280;37146;48.210;16.234;2023-05-24T06:25:33;98844.84;;;15.24;100.00
51099;BME280;37146;48.210;16.234;2023-05-24T06:27:59;98846.34;;;15.28;97.19
51099;BME280;37146;48.210;16.234;2023-05-24T06:30:24;98849.16;;;15.51;96.07
51099;BME280;37146;48.210;16.234;2023-05-24T06:32:50;98848.47;;;15.85;96.30
51099;BME280;37146;48.210;16.234;2023-05-24T06:35:15;98849.41;;;15.97;94.77
51099;BME280;37146;48.210;16.234;2023-05-24T06:37:40;98854.44;;;16.01;93.18
51099;BME280;37146;48.210;16.234;2023-05-24T06:40:06;98868.63;;;15.92;92.54
51099;BME280;37146;48.210;16.234;2023-05-24T06:42:33;98862.88;;;16.44;90.88
51099;BME280;37146;48.210;16.234;2023-05-24T06:44:59;98864.44;;;16.35;90.59
51099;BME280;37146;48.210;16.234;2023-05-24T06:47:24;98860.13;;;16.32;91.41
51099;BME280;37146;48.210;16.234;2023-05-24T06:49:49;98869.38;;;16.41;90.15
51099;BME280;37146;48.210;16.234;2023-05-24T06:52:14;98858.47;;;16.65;92.08
51099;BME280;37146;48.210;16.234;2023-05-24T06:54:40;98853.19;;;16.87;88.78
51099;BME280;37146;48.210;16.234;2023-05-24T06:57:05;98856.00;;;16.62;90.52
51099;BME280;37146;48.210;16.234;2023-05-24T06:59:30;98860.28;;;16.88;89.00
51099;BME280;37146;48.210;16.234;2023-05-24T07:01:55;98861.03;;;16.78;89.90
51099;BME280;37146;48.210;16.234;2023-05-24T07:04:24;98866.44;;;16.90;88.18
51099;BME280;37146;48.210;16.234;2023-05-24T07:06:49;98867.91;;;16.60;89.73
51099;BME280;37146;48.210;16.234;2023-05-24T07:09:16;98877.22;;;16.56;91.89
51099;BME280;37146;48.210;16.234;2023-05-24T07:11:41;98880.22;;;16.87;93.27
51099;BME280;37146;48.210;16.234;2023-05-24T07:14:06;98877.38;;;16.77;91.97
51099;BME280;37146;48.210;16.234;2023-05-24T07:16:31;98882.72;;;16.43;90.87
51099;BME280;37146;48.210;16.234;2023-05-24T07:18:57;98876.25;;;16.68;90.08
51099;BME280;37146;48.210;16.234;2023-05-24T07:21:22;98886.63;;;16.38;88.73
51099;BME280;37146;48.210;16.234;2023-05-24T07:23:48;98893.78;;;16.04;94.46
51099;BME280;37146;48.210;16.234;2023-05-24T07:26:13;98893.16;;;16.36;92.91
51099;BME280;37146;48.210;16.234;2023-05-24T07:28:38;98892.97;;;16.84;87.33
51099;BME280;37146;48.210;16.234;2023-05-24T07:31:04;98887.59;;;17.19;87.07
51099;BME280;37146;48.210;16.234;2023-05-24T07:33:29;98887.44;;;17.31;87.97
51099;BME280;37146;48.210;16.234;2023-05-24T07:35:54;98884.91;;;17.07;83.41
51099;BME280;37146;48.210;16.234;2023-05-24T07:38:20;98885.88;;;17.61;84.00
51099;BME280;37146;48.210;16.234;2023-05-24T07:40:45;98884.56;;;17.44;81.80
51099;BME280;37146;48.210;16.234;2023-05-24T07:43:10;98887.91;;;17.81;83.69
51099;BME280;37146;48.210;16.234;2023-05-24T07:45:35;98878.09;;;17.80;82.18
51099;BME280;37146;48.210;16.234;2023-05-24T07:48:01;98890.38;;;17.84;82.56
51099;BME280;37146;48.210;16.234;2023-05-24T07:50:26;98889.69;;;17.91;80.60
51099;BME280;37146;48.210;16.234;2023-05-24T07:52:53;98892.56;;;17.57;79.68
51099;BME280;37146;48.210;16.234;2023-05-24T07:55:18;98900.75;;;17.67;80.48
51099;BME280;37146;48.210;16.234;2023-05-24T07:57:43;98895.00;;;17.93;76.72
51099;BME280;37146;48.210;16.234;2023-05-24T08:00:09;98902.88;;;17.96;77.31
51099;BME280;37146;48.210;16.234;2023-05-24T08:02:38;98902.31;;;18.56;75.70
51099;BME280;37146;48.210;16.234;2023-05-24T08:05:03;98897.63;;;18.79;71.91
51099;BME280;37146;48.210;16.234;2023-05-24T08:07:29;98897.81;;;18.88;73.21
51099;BME280;37146;48.210;16.234;2023-05-24T08:09:54;98895.47;;;18.31;77.83
51099;BME280;37146;48.210;16.234;2023-05-24T08:12:19;98907.09;;;18.21;75.64
51099;BME280;37146;48.210;16.234;2023-05-24T08:14:44;98900.91;;;18.83;75.02
51099;BME280;37146;48.210;16.234;2023-05-24T08:17:10;98903.25;;;18.66;68.40
51099;BME280;37146;48.210;16.234;2023-05-24T08:19:35;98901.72;;;18.74;74.18
51099;BME280;37146;48.210;16.234;2023-05-24T08:22:00;98906.34;;;18.19;74.36
51099;BME280;37146;48.210;16.234;2023-05-24T08:24:29;98898.38;;;18.60;69.30
51099;BME280;37146;48.210;16.234;2023-05-24T08:26:55;98912.28;;;18.98;71.01
51099;BME280;37146;48.210;16.234;2023-05-24T08:29:20;98902.78;;;19.74;67.84
51099;BME280;37146;48.210;16.234;2023-05-24T08:31:46;98905.63;;;19.72;67.79
51099;BME280;37146;48.210;16.234;2023-05-24T08:34:12;98900.19;;;19.62;68.40
51099;BME280;37146;48.210;16.234;2023-05-24T08:36:37;98905.63;;;19.62;68.13
51099;BME280;37146;48.210;16.234;2023-05-24T08:39:03;98909.16;;;19.53;65.25
51099;BME280;37146;48.210;16.234;2023-05-24T08:41:29;98910.16;;;19.42;66.95
51099;BME280;37146;48.210;16.234;2023-05-24T08:43:56;98902.66;;;19.85;65.33
51099;BME280;37146;48.210;16.234;2023-05-24T08:46:24;98906.25;;;20.35;64.81
51099;BME280;37146;48.210;16.234;2023-05-24T08:48:49;98906.81;;;20.29;63.19
51099;BME280;37146;48.210;16.234;2023-05-24T08:51:16;98910.69;;;20.36;62.22
51099;BME280;37146;48.210;16.234;2023-05-24T08:53:42;98899.09;;;19.85;63.76
51099;BME280;37146;48.210;16.234;2023-05-24T08:56:12;98907.13;;;20.06;63.04
51099;BME280;37146;48.210;16.234;2023-05-24T08:58:41;98902.72;;;20.05;64.35
51099;BME280;37146;48.210;16.234;2023-05-24T09:01:06;98898.84;;;20.17;65.05
51099;BME280;37146;48.210;16.234;2023-05-24T09:03:32;98892.22;;;20.49;63.34
51099;BME280;37146;48.210;16.234;2023-05-24T09:05:59;98900.38;;;20.39;63.12
51099;BME280;37146;48.210;16.234;2023-05-24T09:08:25;98909.81;;;20.35;63.67
51099;BME280;37146;48.210;16.234;2023-05-24T09:10:51;98896.91;;;20.67;62.76
51099;BME280;37146;48.210;16.234;2023-05-24T09:13:17;98901.06;;;20.51;61.23
51099;BME280;37146;48.210;16.234;2023-05-24T09:15:43;98893.69;;;21.29;61.42
51099;BME280;37146;48.210;16.234;2023-05-24T09:18:08;98903.09;;;20.49;60.67
51099;BME280;37146;48.210;16.234;2023-05-24T09:20:33;98900.00;;;20.92;61.49
51099;BME280;37146;48.210;16.234;2023-05-24T09:22:59;98905.94;;;20.58;59.04
51099;BME280;37146;48.210;16.234;2023-05-24T09:25:27;98907.13;;;19.96;62.88
51099;BME280;37146;48.210;16.234;2023-05-24T09:27:54;98907.03;;;20.84;59.88
51099;BME280;37146;48.210;16.234;2023-05-24T09:30:20;98896.91;;;21.42;60.04
51099;BME280;37146;48.210;16.234;2023-05-24T09:32:55;98891.22;;;21.64;59.37
51099;BME280;37146;48.210;16.234;2023-05-24T09:35:21;98903.53;;;21.86;57.80
51099;BME280;37146;48.210;16.234;2023-05-24T09:37:46;98900.09;;;22.20;56.15
51099;BME280;37146;48.210;16.234;2023-05-24T09:40:18;98898.41;;;21.55;56.97
51099;BME280;37146;48.210;16.234;2023-05-24T09:42:44;98891.31;;;22.08;57.12
51099;BME280;37146;48.210;16.234;2023-05-24T09:45:10;98896.59;;;22.09;56.05
51099;BME280;37146;48.210;16.234;2023-05-24T09:47:37;98900.38;;;21.07;59.09
51099;BME280;37146;48.210;16.234;2023-05-24T09:50:04;98904.63;;;20.81;60.01
51099;BME280;37146;48.210;16.234;2023-05-24T09:52:30;98899.31;;;21.45;58.16
51099;BME280;37146;48.210;16.234;2023-05-24T09:54:56;98898.06;;;20.64;58.69
51099;BME280;37146;48.210;16.234;2023-05-24T09:57:21;98901.50;;;22.24;56.69
51099;BME280;37146;48.210;16.234;2023-05-24T09:59:47;98912.47;;;21.50;59.32
51099;BME280;37146;48.210;16.234;2023-05-24T10:02:13;98900.72;;;21.22;59.05
51099;BME280;37146;48.210;16.234;2023-05-24T10:04:39;98919.16;;;21.00;57.86
51099;BME280;37146;48.210;16.234;2023-05-24T10:07:05;98925.13;;;20.36;60.75
51099;BME280;37146;48.210;16.234;2023-05-24T10:09:30;98920.28;;;20.11;61.45
51099;BME280;37146;48.210;16.234;2023-05-24T10:12:01;98909.41;;;19.91;62.69
51099;BME280;37146;48.210;16.234;2023-05-24T10:14:29;98918.41;;;20.11;64.73
51099;BME280;37146;48.210;16.234;2023-05-24T10:16:55;98907.94;;;20.65;61.15
51099;BME280;37146;48.210;16.234;2023-05-24T10:19:20;98904.91;;;20.78;58.67
51099;BME280;37146;48.210;16.234;2023-05-24T10:21:47;98905.88;;;21.25;57.19
51099;BME280;37146;48.210;16.234;2023-05-24T10:24:13;98899.72;;;21.23;59.76
51099;BME280;37146;48.210;16.234;2023-05-24T10:26:41;98901.53;;;21.04;61.32
51099;BME280;37146;48.210;16.234;2023-05-24T10:29:08;98902.34;;;20.57;61.96
51099;BME280;37146;48.210;16.234;2023-05-24T10:31:37;98909.97;;;20.34;60.81
51099;BME280;37146;48.210;16.234;2023-05-24T10:34:04;98913.25;;;19.88;60.69
51099;BME280;37146;48.210;16.234;2023-05-24T10:36:31;98914.78;;;19.71;60.38
51099;BME280;37146;48.210;16.234;2023-05-24T10:38:56;98913.63;;;19.74;59.92
51099;BME280;37146;48.210;16.234;2023-05-24T10:41:24;98914.69;;;20.12;60.48
51099;BME280;37146;48.210;16.234;2023-05-24T10:43:50;98918.25;;;19.83;60.41
51099;BME280;37146;48.210;16.234;2023-05-24T10:46:15;98918.66;;;19.78;62.24
51099;BME280;37146;48.210;16.234;2023-05-24T10:48:43;98921.13;;;20.41;59.82
51099;BME280;37146;48.210;16.234;2023-05-24T10:51:30;98923.94;;;19.80;63.54
51099;BME280;37146;48.210;16.234;2023-05-24T10:54:09;98925.63;;;19.61;63.16
51099;BME280;37146;48.210;16.234;2023-05-24T10:56:38;98932.75;;;19.53;63.87
51099;BME280;37146;48.210;16.234;2023-05-24T10:59:04;98933.13;;;19.38;64.21
51099;BME280;37146;48.210;16.234;2023-05-24T11:01:31;98927.06;;;19.25;64.28
51099;BME280;37146;48.210;16.234;2023-05-24T11:06:53;98936.03;;;19.56;65.68
51099;BME280;37146;48.210;16.234;2023-05-24T11:09:19;98932.56;;;19.95;63.94
51099;BME280;37146;48.210;16.234;2023-05-24T11:11:45;98922.22;;;20.77;61.84
51099;BME280;37146;48.210;16.234;2023-05-24T11:14:11;98915.38;;;22.49;54.50
51099;BME280;37146;48.210;16.234;2023-05-24T11:16:37;98921.41;;;22.87;55.21
51099;BME280;37146;48.210;16.234;2023-05-24T11:19:10;98907.25;;;22.03;57.26
51099;BME280;37146;48.210;16.234;2023-05-24T11:21:35;98914.19;;;21.97;54.86
51099;BME280;37146;48.210;16.234;2023-05-24T11:24:01;98920.22;;;21.45;56.43
51099;BME280;37146;48.210;16.234;2023-05-24T11:26:27;98920.13;;;21.37;57.84
51099;BME280;37146;48.210;16.234;2023-05-24T11:28:53;98915.34;;;21.49;58.68
51099;BME280;37146;48.210;16.234;2023-05-24T11:31:18;98914.56;;;21.66;56.98
51099;BME280;37146;48.210;16.234;2023-05-24T11:33:50;98912.00;;;22.01;56.74
51099;BME280;37146;48.210;16.234;2023-05-24T11:36:16;98906.56;;;22.81;53.00
51099;BME280;37146;48.210;16.234;2023-05-24T11:38:41;98904.72;;;23.59;51.89
51099;BME280;37146;48.210;16.234;2023-05-24T11:41:07;98896.59;;;23.92;51.65
51099;BME280;37146;48.210;16.234;2023-05-24T11:43:32;98901.25;;;22.35;55.82
51099;BME280;37146;48.210;16.234;2023-05-24T11:45:57;98903.13;;;21.62;56.35
51099;BME280;37146;48.210;16.234;2023-05-24T11:48:25;98906.44;;;21.28;57.91
51099;BME280;37146;48.210;16.234;2023-05-24T11:50:51;98905.66;;;20.61;56.55
51099;BME280;37146;48.210;16.234;2023-05-24T11:53:17;98909.56;;;20.96;57.09
51099;BME280;37146;48.210;16.234;2023-05-24T11:55:42;98902.00;;;20.99;57.50
51099;BME280;37146;48.210;16.234;2023-05-24T11:58:09;98902.19;;;20.78;59.04
51099;BME280;37146;48.210;16.234;2023-05-24T12:00:35;98899.13;;;21.29;57.05
51099;BME280;37146;48.210;16.234;2023-05-24T12:03:02;98906.34;;;21.20;57.91
51099;BME280;37146;48.210;16.234;2023-05-24T12:05:31;98910.75;;;21.59;56.28
51099;BME280;37146;48.210;16.234;2023-05-24T12:08:00;98908.34;;;21.74;55.72
51099;BME280;37146;48.210;16.234;2023-05-24T12:10:26;98895.69;;;21.83;56.90
51099;BME280;37146;48.210;16.234;2023-05-24T12:12:51;98903.06;;;22.08;54.73
51099;BME280;37146;48.210;16.234;2023-05-24T12:15:16;98899.41;;;21.54;54.48
51099;BME280;37146;48.210;16.234;2023-05-24T12:17:42;98917.88;;;20.94;56.33
51099;BME280;37146;48.210;16.234;2023-05-24T12:20:08;98911.94;;;20.51;57.68
51099;BME280;37146;48.210;16.234;2023-05-24T12:22:34;98903.06;;;20.59;59.81
51099;BME280;37146;48.210;16.234;2023-05-24T12:24:59;98905.53;;;20.33;58.33
51099;BME280;37146;48.210;16.234;2023-05-24T12:27:26;98912.97;;;20.41;59.19
51099;BME280;37146;48.210;16.234;2023-05-24T12:29:51;98906.09;;;20.36;58.64
51099;BME280;37146;48.210;16.234;2023-05-24T12:32:16;98903.78;;;20.61;56.19
51099;BME280;37146;48.210;16.234;2023-05-24T12:34:42;98896.78;;;20.49;56.65
51099;BME280;37146;48.210;16.234;2023-05-24T12:37:08;98896.66;;;20.50;56.80
51099;BME280;37146;48.210;16.234;2023-05-24T12:39:34;98900.28;;;20.12;57.05
51099;BME280;37146;48.210;16.234;2023-05-24T12:42:00;98905.13;;;20.28;57.93
51099;BME280;37146;48.210;16.234;2023-05-24T12:44:27;98901.81;;;20.44;58.29
51099;BME280;37146;48.210;16.234;2023-05-24T12:46:52;98898.91;;;20.75;58.13
51099;BME280;37146;48.210;16.234;2023-05-24T12:49:18;98896.63;;;20.70;57.09
51099;BME280;37146;48.210;16.234;2023-05-24T12:51:43;98900.34;;;20.69;56.44
51099;BME280;37146;48.210;16.234;2023-05-24T12:54:08;98896.75;;;20.78;56.63
51099;BME280;37146;48.210;16.234;2023-05-24T12:56:34;98894.00;;;21.26;55.47